Houseimaru N0.18 — JD3769 — position and weather

sailwx.info

Track history (hours):
 
Tides and Currents Weather Stations Pressure Air Temp Water Temp Dewpoint Dewpoint Depression Visibility Wind Speed Wind Dir Waves Ship Positions

Houseimaru N0.18

Last reported at 2018-May-25 06:32 UTC. Time now 2018-May-25 14:57 UTC.
Position N 34°51' E 139°39'.

Length 63 m; draft 4 m.

Type: Tanker. MMSI: 431006012.

Date/timePositionNaut miles runAvg speedWind from/ knotsBaromVisibWave heightAir tempDewpointWater temp
2018-May-25 06:32N 34°51' E 139°39'110.9
2018-May-25 06:28N 34°51' E 139°38'235 9.8
2018-May-24 06:37N 33°53' E 135°02'311.3
2018-May-24 06:19N 33°56' E 135°02'411.6
2018-May-24 06:00N 34°00' E 135°02'611.4
2018-May-24 05:29N 34°06' E 135°05'510.4
2018-May-24 05:00N 34°09' E 135°09'2 2.0
2018-May-24 03:52N 34°09' E 135°12'0 0.0
2018-May-24 03:30N 34°09' E 135°12'0 0.0
2018-May-24 03:00N 34°09' E 135°12'0 0.6
2018-May-24 02:30N 34°09' E 135°12'2 3.5
2018-May-24 02:00N 34°09' E 135°10'0 0.4
2018-May-24 01:30N 34°09' E 135°10'0 0.0
2018-May-24 01:00N 34°09' E 135°10'0 0.0
2018-May-24 00:30N 34°09' E 135°10'0 0.0
2018-May-24 00:00N 34°09' E 135°10'0 0.0
2018-May-23 23:31N 34°09' E 135°10'0 0.0
2018-May-23 23:00N 34°09' E 135°10'0 0.0
2018-May-23 22:30N 34°09' E 135°10'0 0.0
2018-May-23 22:00N 34°09' E 135°10'0 0.0
2018-May-23 21:30N 34°09' E 135°10'0 0.0
2018-May-23 21:00N 34°09' E 135°10'0 0.0
2018-May-23 20:30N 34°09' E 135°10'0 0.0
2018-May-23 20:00N 34°09' E 135°10'0 0.1
2018-May-23 19:30N 34°09' E 135°09'4 7.7
2018-May-23 19:00N 34°08' E 135°05'711.4
2018-May-23 18:23N 34°01' E 135°02'411.5
2018-May-23 18:00N 33°57' E 135°02'510.9
2018-May-23 17:30N 33°52' E 135°02'  
2018-May-21 06:24N 33°53' E 135°02'511.9
2018-May-21 06:00N 33°58' E 135°02'611.4
2018-May-21 05:30N 34°04' E 135°02'611.4
2018-May-21 04:59N 34°10' E 135°02'511.0
2018-May-21 04:30N 34°15' E 135°03'510.9
2018-May-21 04:00N 34°20' E 135°05'611.1
2018-May-21 03:30N 34°25' E 135°09'511.1
2018-May-21 03:00N 34°29' E 135°13'611.2
2018-May-21 02:30N 34°33' E 135°17'611.3
2018-May-21 02:00N 34°38' E 135°22'3 6.4
2018-May-21 01:30N 34°39' E 135°25'0 0.0
2018-May-21 01:00N 34°39' E 135°25'0 0.0
2018-May-21 00:28N 34°39' E 135°25'0 0.0
2018-May-21 00:00N 34°39' E 135°25'0 0.0
2018-May-20 23:30N 34°39' E 135°25'0 0.0
2018-May-20 23:00N 34°39' E 135°25'1 2.3
2018-May-20 22:29N 34°40' E 135°26'0 0.0
2018-May-20 21:46N 34°40' E 135°26'0 0.0
2018-May-20 19:19N 34°40' E 135°26'0 0.0
2018-May-20 08:37N 34°40' E 135°26'0 0.0
2018-May-20 07:56N 34°40' E 135°26'0 0.0
2018-May-20 06:06N 34°40' E 135°26'0 0.0
2018-May-20 05:44N 34°40' E 135°26'0 0.0
2018-May-20 05:30N 34°40' E 135°26'0 0.0
2018-May-20 04:47N 34°40' E 135°26'0 0.0
2018-May-20 04:28N 34°40' E 135°26'0 0.0
2018-May-20 03:00N 34°40' E 135°26'0 0.0
2018-May-20 01:50N 34°40' E 135°26'0 0.0
2018-May-20 00:30N 34°40' E 135°26'0 0.0
2018-May-19 23:59N 34°40' E 135°26'0 0.0
2018-May-19 23:30N 34°40' E 135°26'0 0.0
2018-May-19 22:59N 34°40' E 135°26'0 0.0
2018-May-19 22:30N 34°40' E 135°26'0 0.0
2018-May-19 22:00N 34°40' E 135°26'0 0.0
2018-May-19 21:29N 34°40' E 135°26'0 0.0
2018-May-19 21:00N 34°40' E 135°26'0 0.1
2018-May-19 20:30N 34°40' E 135°27'0 0.1
2018-May-19 20:00N 34°40' E 135°26'0 0.0
2018-May-19 19:30N 34°40' E 135°26'0 0.1
2018-May-19 19:00N 34°40' E 135°27'0 0.1
2018-May-19 18:30N 34°40' E 135°26'0 0.0
2018-May-19 18:00N 34°40' E 135°26'0 0.0
2018-May-19 17:29N 34°40' E 135°26'0 0.0
2018-May-19 17:00N 34°40' E 135°26'0 0.0
2018-May-19 16:30N 34°40' E 135°26'0 0.0
2018-May-19 15:59N 34°40' E 135°26'0 0.0
2018-May-19 15:30N 34°40' E 135°26'0 0.0
2018-May-19 14:57N 34°40' E 135°26'0 0.0
2018-May-19 14:30N 34°40' E 135°26'0 0.0
2018-May-19 14:00N 34°40' E 135°26'0 0.0
2018-May-19 13:30N 34°40' E 135°26'0 0.0
2018-May-19 12:57N 34°40' E 135°26'0 0.0
2018-May-19 12:30N 34°40' E 135°26'0 0.0
2018-May-19 11:54N 34°40' E 135°26'0 0.0
2018-May-19 11:30N 34°40' E 135°26'0 0.0
2018-May-19 10:59N 34°40' E 135°26'0 0.0
2018-May-19 10:28N 34°40' E 135°26'0 0.0
2018-May-19 09:53N 34°40' E 135°26'0 0.0
2018-May-19 09:30N 34°40' E 135°26'0 0.0
2018-May-19 08:59N 34°40' E 135°26'0 0.0
2018-May-19 08:29N 34°40' E 135°26'0 0.0
2018-May-19 07:54N 34°40' E 135°26'0 0.0
2018-May-19 07:30N 34°40' E 135°26'0 0.0
2018-May-19 07:00N 34°40' E 135°26'0 0.9
2018-May-19 06:30N 34°40' E 135°26'510.2
2018-May-19 06:00N 34°37' E 135°21'610.5
2018-May-19 05:28N 34°32' E 135°16'510.8
2018-May-19 05:00N 34°28' E 135°12'510.4
2018-May-19 04:30N 34°24' E 135°09'510.6
2018-May-19 04:00N 34°20' E 135°05'510.3
2018-May-19 03:30N 34°15' E 135°03'611.6
2018-May-19 03:00N 34°11' E 135°08'4 7.8
2018-May-19 02:30N 34°09' E 135°12'0 0.0
2018-May-19 02:00N 34°09' E 135°12'0 0.0
2018-May-19 01:30N 34°09' E 135°12'0 0.0
2018-May-19 01:00N 34°09' E 135°12'0 0.0
2018-May-19 00:30N 34°09' E 135°12'3 5.8
2018-May-18 23:57N 34°09' E 135°08'6 9.9
2018-May-18 23:22N 34°04' E 135°04'510.4
2018-May-18 22:55N 33°60' E 135°03'510.1
2018-May-18 22:28N 33°55' E 135°02'226 5.7
2018-May-17 06:54N 34°59' E 139°25'5 7.9
2018-May-17 06:18N 35°02' E 139°30'3 8.4
2018-May-17 05:55N 35°03' E 139°34'4 9.5
2018-May-17 05:29N 35°06' E 139°38'5 9.9
2018-May-17 05:00N 35°08' E 139°43'510.1
2018-May-17 04:30N 35°13' E 139°46'5 9.7
2018-May-17 04:00N 35°17' E 139°45'510.9
2018-May-17 03:30N 35°22' E 139°42'610.9
2018-May-17 03:00N 35°27' E 139°47'611.2
2018-May-17 02:30N 35°30' E 139°52'7 2.1
2018-May-16 23:15N 35°29' E 140°01'1 5.7
2018-May-16 23:00N 35°30' E 139°59'0 0.0
2018-May-16 05:48N 35°30' E 139°59'1 1.6
2018-May-16 05:28N 35°30' E 139°59'511.8
2018-May-16 05:00N 35°30' E 139°52'611.3
2018-May-16 04:30N 35°30' E 139°45'1 0.5
2018-May-16 03:17N 35°31' E 139°45'1 2.4
2018-May-16 03:00N 35°30' E 139°45'5 9.3
2018-May-16 02:30N 35°32' E 139°51'6 1.3
2018-May-15 21:41N 35°27' E 139°49'210.3
2018-May-15 21:30N 35°25' E 139°47'510.3
2018-May-15 21:00N 35°21' E 139°45'510.3
2018-May-15 20:30N 35°16' E 139°47'611.5
2018-May-15 20:00N 35°10' E 139°47'612.0
2018-May-15 19:30N 35°05' E 139°43'611.9
2018-May-15 19:00N 35°01' E 139°38'713.6
2018-May-15 18:30N 34°57' E 139°31'815.2
2018-May-15 17:58N 34°52' E 139°23'5712.0
2018-May-15 13:11N 34°33' E 138°17'  
Track history (hours):
 
Tides and Currents Weather Stations Pressure Air Temp Water Temp Dewpoint Dewpoint Depression Visibility Wind Speed Wind Dir Waves Ship Positions

Houseimaru N0.18

Last reported at 2018-May-25 06:32 UTC. Time now 2018-May-25 14:57 UTC.
Position N 34°51' E 139°39'.

Length 63 m; draft 4 m.

Type: Tanker. MMSI: 431006012.

Date/timePositionNaut miles runAvg speedWind from/ knotsBaromVisibWave heightAir tempDewpointWater temp
2018-May-25 06:32N 34°51' E 139°39'110.9
2018-May-25 06:28N 34°51' E 139°38'235 9.8
2018-May-24 06:37N 33°53' E 135°02'311.3
2018-May-24 06:19N 33°56' E 135°02'411.6
2018-May-24 06:00N 34°00' E 135°02'611.4
2018-May-24 05:29N 34°06' E 135°05'510.4
2018-May-24 05:00N 34°09' E 135°09'2 2.0
2018-May-24 03:52N 34°09' E 135°12'0 0.0
2018-May-24 03:30N 34°09' E 135°12'0 0.0
2018-May-24 03:00N 34°09' E 135°12'0 0.6
2018-May-24 02:30N 34°09' E 135°12'2 3.5
2018-May-24 02:00N 34°09' E 135°10'0 0.4
2018-May-24 01:30N 34°09' E 135°10'0 0.0
2018-May-24 01:00N 34°09' E 135°10'0 0.0
2018-May-24 00:30N 34°09' E 135°10'0 0.0
2018-May-24 00:00N 34°09' E 135°10'0 0.0
2018-May-23 23:31N 34°09' E 135°10'0 0.0
2018-May-23 23:00N 34°09' E 135°10'0 0.0
2018-May-23 22:30N 34°09' E 135°10'0 0.0
2018-May-23 22:00N 34°09' E 135°10'0 0.0
2018-May-23 21:30N 34°09' E 135°10'0 0.0
2018-May-23 21:00N 34°09' E 135°10'0 0.0
2018-May-23 20:30N 34°09' E 135°10'0 0.0
2018-May-23 20:00N 34°09' E 135°10'0 0.1
2018-May-23 19:30N 34°09' E 135°09'4 7.7
2018-May-23 19:00N 34°08' E 135°05'711.4
2018-May-23 18:23N 34°01' E 135°02'411.5
2018-May-23 18:00N 33°57' E 135°02'510.9
2018-May-23 17:30N 33°52' E 135°02'  
2018-May-21 06:24N 33°53' E 135°02'511.9
2018-May-21 06:00N 33°58' E 135°02'611.4
2018-May-21 05:30N 34°04' E 135°02'611.4
2018-May-21 04:59N 34°10' E 135°02'511.0
2018-May-21 04:30N 34°15' E 135°03'510.9
2018-May-21 04:00N 34°20' E 135°05'611.1
2018-May-21 03:30N 34°25' E 135°09'511.1
2018-May-21 03:00N 34°29' E 135°13'611.2
2018-May-21 02:30N 34°33' E 135°17'611.3
2018-May-21 02:00N 34°38' E 135°22'3 6.4
2018-May-21 01:30N 34°39' E 135°25'0 0.0
2018-May-21 01:00N 34°39' E 135°25'0 0.0
2018-May-21 00:28N 34°39' E 135°25'0 0.0
2018-May-21 00:00N 34°39' E 135°25'0 0.0
2018-May-20 23:30N 34°39' E 135°25'0 0.0
2018-May-20 23:00N 34°39' E 135°25'1 2.3
2018-May-20 22:29N 34°40' E 135°26'0 0.0
2018-May-20 21:46N 34°40' E 135°26'0 0.0
2018-May-20 19:19N 34°40' E 135°26'0 0.0
2018-May-20 08:37N 34°40' E 135°26'0 0.0
2018-May-20 07:56N 34°40' E 135°26'0 0.0
2018-May-20 06:06N 34°40' E 135°26'0 0.0
2018-May-20 05:44N 34°40' E 135°26'0 0.0
2018-May-20 05:30N 34°40' E 135°26'0 0.0
2018-May-20 04:47N 34°40' E 135°26'0 0.0
2018-May-20 04:28N 34°40' E 135°26'0 0.0
2018-May-20 03:00N 34°40' E 135°26'0 0.0
2018-May-20 01:50N 34°40' E 135°26'0 0.0
2018-May-20 00:30N 34°40' E 135°26'0 0.0
2018-May-19 23:59N 34°40' E 135°26'0 0.0
2018-May-19 23:30N 34°40' E 135°26'0 0.0
2018-May-19 22:59N 34°40' E 135°26'0 0.0
2018-May-19 22:30N 34°40' E 135°26'0 0.0
2018-May-19 22:00N 34°40' E 135°26'0 0.0
2018-May-19 21:29N 34°40' E 135°26'0 0.0
2018-May-19 21:00N 34°40' E 135°26'0 0.1
2018-May-19 20:30N 34°40' E 135°27'0 0.1
2018-May-19 20:00N 34°40' E 135°26'0 0.0
2018-May-19 19:30N 34°40' E 135°26'0 0.1
2018-May-19 19:00N 34°40' E 135°27'0 0.1
2018-May-19 18:30N 34°40' E 135°26'0 0.0
2018-May-19 18:00N 34°40' E 135°26'0 0.0
2018-May-19 17:29N 34°40' E 135°26'0 0.0
2018-May-19 17:00N 34°40' E 135°26'0 0.0
2018-May-19 16:30N 34°40' E 135°26'0 0.0
2018-May-19 15:59N 34°40' E 135°26'0 0.0
2018-May-19 15:30N 34°40' E 135°26'0 0.0
2018-May-19 14:57N 34°40' E 135°26'0 0.0
2018-May-19 14:30N 34°40' E 135°26'0 0.0
2018-May-19 14:00N 34°40' E 135°26'0 0.0
2018-May-19 13:30N 34°40' E 135°26'0 0.0
2018-May-19 12:57N 34°40' E 135°26'0 0.0
2018-May-19 12:30N 34°40' E 135°26'0 0.0
2018-May-19 11:54N 34°40' E 135°26'0 0.0
2018-May-19 11:30N 34°40' E 135°26'0 0.0
2018-May-19 10:59N 34°40' E 135°26'0 0.0
2018-May-19 10:28N 34°40' E 135°26'0 0.0
2018-May-19 09:53N 34°40' E 135°26'0 0.0
2018-May-19 09:30N 34°40' E 135°26'0 0.0
2018-May-19 08:59N 34°40' E 135°26'0 0.0
2018-May-19 08:29N 34°40' E 135°26'0 0.0
2018-May-19 07:54N 34°40' E 135°26'0 0.0
2018-May-19 07:30N 34°40' E 135°26'0 0.0
2018-May-19 07:00N 34°40' E 135°26'0 0.9
2018-May-19 06:30N 34°40' E 135°26'510.2
2018-May-19 06:00N 34°37' E 135°21'610.5
2018-May-19 05:28N 34°32' E 135°16'510.8
2018-May-19 05:00N 34°28' E 135°12'510.4
2018-May-19 04:30N 34°24' E 135°09'510.6
2018-May-19 04:00N 34°20' E 135°05'510.3
2018-May-19 03:30N 34°15' E 135°03'611.6
2018-May-19 03:00N 34°11' E 135°08'4 7.8
2018-May-19 02:30N 34°09' E 135°12'0 0.0
2018-May-19 02:00N 34°09' E 135°12'0 0.0
2018-May-19 01:30N 34°09' E 135°12'0 0.0
2018-May-19 01:00N 34°09' E 135°12'0 0.0
2018-May-19 00:30N 34°09' E 135°12'3 5.8
2018-May-18 23:57N 34°09' E 135°08'6 9.9
2018-May-18 23:22N 34°04' E 135°04'510.4
2018-May-18 22:55N 33°60' E 135°03'510.1
2018-May-18 22:28N 33°55' E 135°02'226 5.7
2018-May-17 06:54N 34°59' E 139°25'5 7.9
2018-May-17 06:18N 35°02' E 139°30'3 8.4
2018-May-17 05:55N 35°03' E 139°34'4 9.5
2018-May-17 05:29N 35°06' E 139°38'5 9.9
2018-May-17 05:00N 35°08' E 139°43'510.1
2018-May-17 04:30N 35°13' E 139°46'5 9.7
2018-May-17 04:00N 35°17' E 139°45'510.9
2018-May-17 03:30N 35°22' E 139°42'610.9
2018-May-17 03:00N 35°27' E 139°47'611.2
2018-May-17 02:30N 35°30' E 139°52'7 2.1
2018-May-16 23:15N 35°29' E 140°01'1 5.7
2018-May-16 23:00N 35°30' E 139°59'0 0.0
2018-May-16 05:48N 35°30' E 139°59'1 1.6
2018-May-16 05:28N 35°30' E 139°59'511.8
2018-May-16 05:00N 35°30' E 139°52'611.3
2018-May-16 04:30N 35°30' E 139°45'1 0.5
2018-May-16 03:17N 35°31' E 139°45'1 2.4
2018-May-16 03:00N 35°30' E 139°45'5 9.3
2018-May-16 02:30N 35°32' E 139°51'6 1.3
2018-May-15 21:41N 35°27' E 139°49'210.3
2018-May-15 21:30N 35°25' E 139°47'510.3
2018-May-15 21:00N 35°21' E 139°45'510.3
2018-May-15 20:30N 35°16' E 139°47'611.5
2018-May-15 20:00N 35°10' E 139°47'612.0
2018-May-15 19:30N 35°05' E 139°43'611.9
2018-May-15 19:00N 35°01' E 139°38'713.6
2018-May-15 18:30N 34°57' E 139°31'815.2
2018-May-15 17:58N 34°52' E 139°23'5712.0
2018-May-15 13:11N 34°33' E 138°17'  

Dump ship's entire track history